Time,TemperatureF,DewpointF,PressureIn,WindDirection,WindDirectionDegrees,WindSpeedMPH,WindSpeedGustMPH,Humidity,HourlyPrecipIn,Conditions,Clouds,dailyrainin,SoftwareType,DateUTC
2013-01-22 00:00:00,-0.4,-4.3,30.00,ENE,65,5.0,9.0,83,0.00,,---,0.00,VWS V14.01,2013-01-22 05:00:00,
2013-01-22 00:01:00,-0.4,-4.3,30.00,ENE,61,5.0,9.0,83,0.00,,---,0.00,VWS V14.01,2013-01-22 05:01:00,
2013-01-22 00:03:00,-0.5,-4.7,30.00,ENE,57,3.0,7.0,82,0.00,,---,0.00,VWS V14.01,2013-01-22 05:03:00,
2013-01-22 00:08:00,-0.7,-4.9,30.00,ENE,57,3.0,7.0,82,0.00,,---,0.00,VWS V14.01,2013-01-22 05:08:00,
2013-01-22 00:13:00,-0.9,-5.1,30.00,ENE,61,2.0,7.0,82,0.00,,---,0.00,VWS V14.01,2013-01-22 05:13:00,
2013-01-22 00:18:00,-1.0,-5.2,30.00,ENE,73,8.0,10.0,82,0.00,,---,0.00,VWS V14.01,2013-01-22 05:18:00,
2013-01-22 00:23:00,-1.2,-5.3,30.00,ENE,75,7.0,10.0,82,0.00,,---,0.00,VWS V14.01,2013-01-22 05:23:00,
2013-01-22 00:28:00,-1.4,-5.6,30.00,ENE,69,9.0,10.0,82,0.00,,---,0.00,VWS V14.01,2013-01-22 05:28:00,
2013-01-22 00:30:00,-3.7,-8.1,30.01,ENE,61,3.0,8.0,81,0.00,,---,0.00,VWS V15.00,2013-01-22 05:30:00,
2013-01-22 00:33:00,-1.6,-5.7,30.00,ENE,58,5.0,7.0,82,0.00,,---,0.00,VWS V14.01,2013-01-22 05:33:00,
2013-01-22 00:38:00,-1.8,-5.9,30.00,ENE,63,7.0,11.0,82,0.00,,---,0.00,VWS V14.01,2013-01-22 05:38:00,
2013-01-22 00:43:00,-2.1,-6.5,30.00,ENE,57,7.0,11.0,81,0.00,,---,0.00,VWS V14.01,2013-01-22 05:43:00,
2013-01-22 00:48:00,-2.2,-6.6,30.00,ENE,58,2.0,12.0,81,0.00,,---,0.00,VWS V14.01,2013-01-22 05:48:00,
2013-01-22 00:53:00,-2.4,-6.8,30.01,ENE,61,2.0,12.0,81,0.00,,---,0.00,VWS V14.01,2013-01-22 05:53:00,
2013-01-22 00:58:00,-2.6,-7.0,30.01,NE,46,2.0,12.0,81,0.00,,---,0.00,VWS V14.01,2013-01-22 05:58:00,
2013-01-22 01:00:00,-3.9,-8.5,30.03,ENE,63,4.0,9.0,80,0.00,,---,0.00,VWS V15.00,2013-01-22 06:00:00,
2013-01-22 01:03:00,-2.7,-7.1,30.01,ENE,71,7.0,8.0,81,0.00,,---,0.00,VWS V14.01,2013-01-22 06:03:00,
2013-01-22 01:08:00,-3.0,-7.4,30.01,ENE,58,2.0,8.0,81,0.00,,---,0.00,VWS V14.01,2013-01-22 06:08:00,
2013-01-22 01:13:00,-3.1,-7.5,30.01,ENE,61,6.0,8.0,81,0.00,,---,0.00,VWS V14.01,2013-01-22 06:13:00,
2013-01-22 01:18:00,-3.3,-7.7,30.01,ENE,67,4.0,8.0,81,0.00,,---,0.00,VWS V14.01,2013-01-22 06:18:00,
2013-01-22 01:23:00,-3.4,-7.8,30.01,ENE,63,4.0,8.0,81,0.00,,---,0.00,VWS V14.01,2013-01-22 06:23:00,
2013-01-22 01:28:00,-3.6,-7.9,30.01,ENE,63,2.0,8.0,81,0.00,,---,0.00,VWS V14.01,2013-01-22 06:28:00,
2013-01-22 01:30:00,-4.2,-8.8,30.04,ENE,67,4.0,9.0,80,0.00,,---,0.00,VWS V15.00,2013-01-22 06:30:00,
2013-01-22 01:33:00,-3.7,-8.1,30.01,ENE,61,5.0,5.0,81,0.00,,---,0.00,VWS V14.01,2013-01-22 06:33:00,
2013-01-22 01:38:00,-3.8,-8.1,30.02,NE,56,2.0,6.0,81,0.00,,---,0.00,VWS V14.01,2013-01-22 06:38:00,
2013-01-22 01:43:00,-3.8,-8.1,30.02,ENE,57,2.0,7.0,81,0.00,,---,0.00,VWS V14.01,2013-01-22 06:43:00,
2013-01-22 01:48:00,-3.9,-8.2,30.02,NE,49,3.0,8.0,81,0.00,,---,0.00,VWS V14.01,2013-01-22 06:48:00,
2013-01-22 01:53:00,-3.9,-8.5,30.03,ENE,61,5.0,9.0,80,0.00,,---,0.00,VWS V14.01,2013-01-22 06:53:00,
2013-01-22 01:58:00,-3.9,-8.5,30.03,ENE,67,4.0,9.0,80,0.00,,---,0.00,VWS V14.01,2013-01-22 06:58:00,
2013-01-22 02:00:00,-4.8,-9.6,30.05,ENE,59,5.0,8.0,79,0.00,,---,0.00,VWS V15.00,2013-01-22 07:00:00,
2013-01-22 02:03:00,-3.9,-8.5,30.03,ENE,61,2.0,8.0,80,0.00,,---,0.00,VWS V14.01,2013-01-22 07:03:00,
2013-01-22 02:08:00,-4.0,-8.6,30.03,ENE,58,3.0,9.0,80,0.00,,---,0.00,VWS V14.01,2013-01-22 07:08:00,
2013-01-22 02:13:00,-4.0,-8.6,30.03,ENE,61,2.0,9.0,80,0.00,,---,0.00,VWS V14.01,2013-01-22 07:13:00,
2013-01-22 02:18:00,-4.0,-8.6,30.04,ENE,67,3.0,9.0,80,0.00,,---,0.00,VWS V14.01,2013-01-22 07:18:00,
2013-01-22 02:24:00,-4.1,-8.7,30.04,ENE,77,3.0,9.0,80,0.00,,---,0.00,VWS V14.01,2013-01-22 07:24:00,
2013-01-22 02:29:00,-4.2,-8.8,30.04,East,83,4.0,9.0,80,0.00,,---,0.00,VWS V14.01,2013-01-22 07:29:00,
2013-01-22 02:30:00,-5.5,-10.3,30.06,ENE,58,6.0,8.0,79,0.00,,---,0.00,VWS V15.00,2013-01-22 07:30:00,
2013-01-22 02:34:00,-4.3,-8.9,30.04,ENE,71,4.0,7.0,80,0.00,,---,0.00,VWS V14.01,2013-01-22 07:34:00,
2013-01-22 02:39:00,-4.3,-8.9,30.05,ENE,72,5.0,7.0,80,0.00,,---,0.00,VWS V14.01,2013-01-22 07:39:00,
2013-01-22 02:44:00,-4.4,-9.2,30.05,ENE,57,5.0,7.0,79,0.00,,---,0.00,VWS V14.01,2013-01-22 07:44:00,
2013-01-22 02:49:00,-4.5,-9.3,30.05,ENE,71,7.0,7.0,79,0.00,,---,0.00,VWS V14.01,2013-01-22 07:49:00,
2013-01-22 02:54:00,-4.7,-9.5,30.05,NE,56,3.0,7.0,79,0.00,,---,0.00,VWS V14.01,2013-01-22 07:54:00,
2013-01-22 02:59:00,-4.8,-9.6,30.05,ENE,57,6.0,8.0,79,0.00,,---,0.00,VWS V14.01,2013-01-22 07:59:00,
2013-01-22 03:00:00,-6.3,-11.1,30.07,ENE,65,3.0,8.0,79,0.00,,---,0.00,VWS V15.00,2013-01-22 08:00:00,
2013-01-22 03:04:00,-4.9,-9.7,30.05,ENE,61,3.0,6.0,79,0.00,,---,0.00,VWS V14.01,2013-01-22 08:04:00,
2013-01-22 03:09:00,-5.0,-9.8,30.05,ENE,59,5.0,7.0,79,0.00,,---,0.00,VWS V14.01,2013-01-22 08:09:00,
2013-01-22 03:14:00,-5.1,-9.9,30.06,ENE,60,5.0,7.0,79,0.00,,---,0.00,VWS V14.01,2013-01-22 08:14:00,
2013-01-22 03:19:00,-5.3,-10.1,30.06,ENE,59,5.0,7.0,79,0.00,,---,0.00,VWS V14.01,2013-01-22 08:19:00,
2013-01-22 03:24:00,-5.4,-10.5,30.06,ENE,65,5.0,8.0,78,0.00,,---,0.00,VWS V14.01,2013-01-22 08:24:00,
2013-01-22 03:29:00,-5.5,-10.6,30.06,NE,56,3.0,8.0,78,0.00,,---,0.00,VWS V14.01,2013-01-22 08:29:00,
2013-01-22 03:30:00,-6.6,-11.1,30.08,NE,40,2.0,7.0,80,0.00,,---,0.00,VWS V15.00,2013-01-22 08:30:00,
2013-01-22 03:34:00,-5.7,-10.5,30.06,ENE,61,2.0,7.0,79,0.00,,---,0.00,VWS V14.01,2013-01-22 08:34:00,
2013-01-22 03:39:00,-5.8,-10.6,30.06,ENE,65,2.0,7.0,79,0.00,,---,0.00,VWS V14.01,2013-01-22 08:39:00,
2013-01-22 03:44:00,-5.9,-10.7,30.07,ENE,61,2.0,8.0,79,0.00,,---,0.00,VWS V14.01,2013-01-22 08:44:00,
2013-01-22 03:49:00,-6.0,-10.8,30.07,ENE,64,5.0,8.0,79,0.00,,---,0.00,VWS V14.01,2013-01-22 08:49:00,
2013-01-22 03:54:00,-6.2,-11.0,30.07,ENE,60,5.0,8.0,79,0.00,,---,0.00,VWS V14.01,2013-01-22 08:54:00,
2013-01-22 03:59:00,-6.3,-11.1,30.07,ENE,65,3.0,8.0,79,0.00,,---,0.00,VWS V14.01,2013-01-22 08:59:00,
2013-01-22 04:00:00,-6.8,-11.6,30.09,NE,42,7.0,7.0,79,0.00,,---,0.00,VWS V15.00,2013-01-22 09:00:00,
2013-01-22 04:04:00,-6.3,-10.9,30.07,ENE,65,4.0,4.0,80,0.00,,---,0.00,VWS V14.01,2013-01-22 09:04:00,
2013-01-22 04:09:00,-6.3,-10.9,30.07,ENE,65,1.0,5.0,80,0.00,,---,0.00,VWS V14.01,2013-01-22 09:09:00,
2013-01-22 04:14:00,-6.4,-10.9,30.08,ENE,65,1.0,5.0,80,0.00,,---,0.00,VWS V14.01,2013-01-22 09:14:00,
2013-01-22 04:19:00,-6.5,-11.0,30.08,NE,41,3.0,6.0,80,0.00,,---,0.00,VWS V14.01,2013-01-22 09:19:00,
2013-01-22 04:24:00,-6.5,-11.0,30.08,NE,40,3.0,6.0,80,0.00,,---,0.00,VWS V14.01,2013-01-22 09:24:00,
2013-01-22 04:29:00,-6.6,-11.1,30.08,NE,39,3.0,7.0,80,0.00,,---,0.00,VWS V14.01,2013-01-22 09:29:00,
2013-01-22 04:30:00,-7.6,-12.6,30.09,ENE,58,2.0,7.0,78,0.00,,---,0.00,VWS V15.00,2013-01-22 09:30:00,
2013-01-22 04:34:00,-6.6,-11.1,30.08,NE,44,5.0,6.0,80,0.00,,---,0.00,VWS V14.01,2013-01-22 09:34:00,
2013-01-22 04:39:00,-6.6,-11.1,30.08,NE,43,5.0,7.0,80,0.00,,---,0.00,VWS V14.01,2013-01-22 09:39:00,
2013-01-22 04:44:00,-6.6,-11.4,30.08,NE,42,7.0,7.0,79,0.00,,---,0.00,VWS V14.01,2013-01-22 09:44:00,
2013-01-22 04:49:00,-6.6,-11.4,30.09,NE,35,3.0,7.0,79,0.00,,---,0.00,VWS V14.01,2013-01-22 09:49:00,
2013-01-22 04:55:00,-6.7,-11.5,30.09,NNE,31,4.0,7.0,79,0.00,,---,0.00,VWS V14.01,2013-01-22 09:55:00,
2013-01-22 05:00:00,-6.8,-11.6,30.09,NE,42,6.0,7.0,79,0.00,,---,0.00,VWS V14.01,2013-01-22 10:00:00,
2013-01-22 05:05:00,-6.9,-11.7,30.09,NE,48,6.0,7.0,79,0.00,,---,0.00,VWS V14.01,2013-01-22 10:05:00,
2013-01-22 05:10:00,-7.1,-11.9,30.09,NE,55,5.0,7.0,79,0.00,,---,0.00,VWS V14.01,2013-01-22 10:10:00,
2013-01-22 05:15:00,-7.2,-12.0,30.09,ENE,60,3.0,7.0,79,0.00,,---,0.00,VWS V14.01,2013-01-22 10:15:00,
2013-01-22 05:20:00,-7.4,-12.2,30.09,NE,53,5.0,7.0,79,0.00,,---,0.00,VWS V14.01,2013-01-22 10:20:00,
2013-01-22 05:25:00,-7.5,-12.5,30.09,ENE,57,5.0,7.0,78,0.00,,---,0.00,VWS V14.01,2013-01-22 10:25:00,
2013-01-22 05:30:00,-7.6,-12.6,30.09,ENE,58,2.0,7.0,78,0.00,,---,0.00,VWS V14.01,2013-01-22 10:30:00,
2013-01-22 05:35:00,-7.7,-12.7,30.10,ENE,58,2.0,3.0,78,0.00,,---,0.00,VWS V14.01,2013-01-22 10:35:00,
2013-01-22 05:40:00,-7.7,-12.5,30.10,NE,48,5.0,5.0,79,0.00,,---,0.00,VWS V14.01,2013-01-22 10:40:00,
2013-01-22 05:45:00,-7.8,-12.6,30.10,NE,47,3.0,5.0,79,0.00,,---,0.00,VWS V14.01,2013-01-22 10:45:00,
2013-01-22 05:50:00,-8.1,-12.9,30.10,NE,38,2.0,6.0,79,0.00,,---,0.00,VWS V14.01,2013-01-22 10:50:00,
2013-01-22 05:55:00,-8.4,-13.1,30.10,NE,44,5.0,6.0,79,0.00,,---,0.00,VWS V14.01,2013-01-22 10:55:00,
2013-01-22 06:00:00,-8.5,-13.2,30.11,NE,43,3.0,6.0,79,0.00,,---,0.00,VWS V14.01,2013-01-22 11:00:00,
2013-01-22 06:05:00,-8.8,-14.6,30.11,NNW,341,6.0,7.0,75,0.00,,---,0.00,VWS V14.01,2013-01-22 11:05:00,
2013-01-22 06:10:00,-9.0,-14.8,30.11,NNW,339,6.0,7.0,75,0.00,,---,0.00,VWS V14.01,2013-01-22 11:10:00,
2013-01-22 06:15:00,-9.0,-14.5,30.11,North,351,5.0,7.0,76,0.00,,---,0.00,VWS V14.01,2013-01-22 11:15:00,
2013-01-22 06:20:00,-9.1,-14.6,30.11,North,354,4.0,7.0,76,0.00,,---,0.00,VWS V14.01,2013-01-22 11:20:00,
2013-01-22 06:25:00,-9.2,-14.4,30.12,North,11,4.0,7.0,77,0.00,,---,0.00,VWS V14.01,2013-01-22 11:25:00,
2013-01-22 06:30:00,-9.3,-14.5,30.12,North,11,3.0,7.0,77,0.00,,---,0.00,VWS V14.01,2013-01-22 11:30:00,
2013-01-22 06:35:00,-9.5,-14.5,30.12,NNE,12,1.0,3.0,78,0.00,,---,0.00,VWS V14.01,2013-01-22 11:35:00,
2013-01-22 06:40:00,-9.4,-14.4,30.13,ENE,67,5.0,5.0,78,0.00,,---,0.00,VWS V14.01,2013-01-22 11:40:00,
2013-01-22 06:45:00,-9.5,-14.2,30.13,ENE,67,4.0,7.0,79,0.00,,---,0.00,VWS V14.01,2013-01-22 11:45:00,
2013-01-22 06:50:00,-9.7,-14.4,30.13,ENE,69,7.0,9.0,79,0.00,,---,0.00,VWS V14.01,2013-01-22 11:50:00,
2013-01-22 06:55:00,-9.8,-14.5,30.13,ENE,68,2.0,9.0,79,0.00,,---,0.00,VWS V14.01,2013-01-22 11:55:00,
2013-01-22 07:00:00,-10.1,-15.1,30.14,NE,56,6.0,9.0,78,0.00,,---,0.00,VWS V14.01,2013-01-22 12:00:00,
2013-01-22 07:05:00,-10.3,-15.2,30.14,NE,54,3.0,7.0,78,0.00,,---,0.00,VWS V14.01,2013-01-22 12:05:00,
2013-01-22 07:10:00,-10.6,-15.6,30.14,NE,52,3.0,7.0,78,0.00,,---,0.00,VWS V14.01,2013-01-22 12:10:00,
2013-01-22 07:15:00,-10.7,-15.6,30.14,NE,52,6.0,7.0,78,0.00,,---,0.00,VWS V14.01,2013-01-22 12:15:00,
2013-01-22 07:20:00,-10.8,-15.7,30.14,ENE,57,7.0,7.0,78,0.00,,---,0.00,VWS V14.01,2013-01-22 12:20:00,
2013-01-22 07:25:00,-11.0,-15.9,30.15,NE,50,5.0,7.0,78,0.00,,---,0.00,VWS V14.01,2013-01-22 12:25:00,
2013-01-22 07:30:00,-11.0,-15.9,30.14,NE,54,6.0,7.0,78,0.00,,---,0.00,VWS V14.01,2013-01-22 12:30:00,
2013-01-22 07:35:00,-11.2,-16.1,30.15,NE,45,2.0,6.0,78,0.00,,---,0.00,VWS V14.01,2013-01-22 12:35:00,
2013-01-22 07:40:00,-11.3,-16.2,30.15,NE,50,5.0,6.0,78,0.00,,---,0.00,VWS V14.01,2013-01-22 12:40:00,
2013-01-22 07:45:00,-11.3,-16.2,30.16,ENE,58,5.0,7.0,78,0.00,,---,0.00,VWS V14.01,2013-01-22 12:45:00,
2013-01-22 07:50:00,-11.3,-16.2,30.15,ENE,61,3.0,7.0,78,0.00,,---,0.00,VWS V14.01,2013-01-22 12:50:00,
2013-01-22 07:55:00,-11.5,-16.7,30.15,ENE,63,3.0,7.0,77,0.00,,---,0.00,VWS V14.01,2013-01-22 12:55:00,
2013-01-22 08:00:00,-11.6,-16.8,30.16,ENE,61,3.0,7.0,77,0.00,,---,0.00,VWS V14.01,2013-01-22 13:00:00,
2013-01-22 08:05:00,-11.8,-17.0,30.16,ENE,63,3.0,5.0,77,0.00,,---,0.00,VWS V14.01,2013-01-22 13:05:00,
2013-01-22 08:10:00,-11.9,-17.1,30.16,ENE,68,3.0,7.0,77,0.00,,---,0.00,VWS V14.01,2013-01-22 13:10:00,
2013-01-22 08:16:00,-12.1,-17.3,30.16,ENE,64,3.0,7.0,77,0.00,,---,0.00,VWS V14.01,2013-01-22 13:16:00,
2013-01-22 08:21:00,-12.3,-17.5,30.17,ENE,63,5.0,8.0,77,0.00,,---,0.00,VWS V14.01,2013-01-22 13:21:00,
2013-01-22 08:26:00,-12.4,-17.5,30.17,ENE,63,3.0,9.0,77,0.00,,---,0.00,VWS V14.01,2013-01-22 13:26:00,
2013-01-22 08:30:00,-12.8,-18.7,30.19,North,359,11.0,12.0,74,0.00,,---,0.00,VWS V15.00,2013-01-22 13:30:00,
2013-01-22 08:31:00,-12.5,-17.9,30.17,ENE,58,7.0,9.0,76,0.00,,---,0.00,VWS V14.01,2013-01-22 13:31:00,
2013-01-22 08:36:00,-12.6,-17.8,30.17,ENE,63,3.0,5.0,77,0.00,,---,0.00,VWS V14.01,2013-01-22 13:36:00,
2013-01-22 08:41:00,-12.7,-18.1,30.17,ENE,65,2.0,8.0,76,0.00,,---,0.00,VWS V14.01,2013-01-22 13:41:00,
2013-01-22 08:46:00,-12.7,-18.1,30.17,ENE,60,3.0,8.0,76,0.00,,---,0.00,VWS V14.01,2013-01-22 13:46:00,
2013-01-22 08:51:00,-12.6,-18.0,30.17,ENE,64,3.0,8.0,76,0.00,,---,0.00,VWS V14.01,2013-01-22 13:51:00,
2013-01-22 08:56:00,-12.6,-18.0,30.18,ENE,63,4.0,8.0,76,0.00,,---,0.00,VWS V14.01,2013-01-22 13:56:00,
2013-01-22 09:00:00,-12.4,-18.6,30.20,North,350,8.0,12.0,73,0.00,,---,0.00,VWS V15.00,2013-01-22 14:00:00,
2013-01-22 09:01:00,-12.5,-17.6,30.18,ENE,63,1.0,8.0,77,0.00,,---,0.00,VWS V14.01,2013-01-22 14:01:00,
2013-01-22 09:06:00,-12.2,-17.4,30.18,ENE,61,5.0,5.0,77,0.00,,---,0.00,VWS V14.01,2013-01-22 14:06:00,
2013-01-22 09:11:00,-12.0,-16.9,30.18,ENE,61,6.0,8.0,78,0.00,,---,0.00,VWS V14.01,2013-01-22 14:11:00,
2013-01-22 09:16:00,-11.8,-16.7,30.19,ENE,61,3.0,8.0,78,0.00,,---,0.00,VWS V14.01,2013-01-22 14:16:00,
2013-01-22 09:21:00,-12.4,-18.1,30.19,North,2,6.0,9.0,75,0.00,,---,0.00,VWS V14.01,2013-01-22 14:21:00,
2013-01-22 09:26:00,-12.8,-18.5,30.19,North,1,11.0,12.0,75,0.00,,---,0.00,VWS V14.01,2013-01-22 14:26:00,
2013-01-22 09:30:00,-11.6,-18.1,30.21,NNE,26,5.0,8.0,72,0.00,,---,0.00,VWS V15.00,2013-01-22 14:30:00,
2013-01-22 09:32:00,-12.8,-18.7,30.19,North,1,10.0,11.0,74,0.00,,---,0.00,VWS V14.01,2013-01-22 14:32:00,
2013-01-22 09:37:00,-12.8,-19.0,30.19,North,355,11.0,12.0,73,0.00,,---,0.00,VWS V14.01,2013-01-22 14:37:00,
2013-01-22 09:42:00,-12.9,-19.3,30.19,NNW,347,9.0,12.0,72,0.00,,---,0.00,VWS V14.01,2013-01-22 14:42:00,
2013-01-22 09:47:00,-12.7,-18.9,30.20,North,351,7.0,12.0,73,0.00,,---,0.00,VWS V14.01,2013-01-22 14:47:00,
2013-01-22 09:52:00,-12.7,-18.9,30.20,North,349,7.0,12.0,73,0.00,,---,0.00,VWS V14.01,2013-01-22 14:52:00,
2013-01-22 09:57:00,-12.6,-18.8,30.20,North,351,8.0,12.0,73,0.00,,---,0.00,VWS V14.01,2013-01-22 14:57:00,
2013-01-22 10:00:00,-11.5,-18.5,30.22,North,352,7.0,8.0,70,0.00,,---,0.00,VWS V15.00,2013-01-22 15:00:00,
2013-01-22 10:02:00,-12.4,-18.6,30.20,North,354,7.0,8.0,73,0.00,,---,0.00,VWS V14.01,2013-01-22 15:02:00,
2013-01-22 10:07:00,-12.2,-18.4,30.20,North,359,7.0,8.0,73,0.00,,---,0.00,VWS V14.01,2013-01-22 15:07:00,
2013-01-22 10:12:00,-12.1,-18.3,30.20,North,356,6.0,8.0,73,0.00,,---,0.00,VWS V14.01,2013-01-22 15:12:00,
2013-01-22 10:17:00,-12.2,-18.4,30.20,North,2,6.0,8.0,73,0.00,,---,0.00,VWS V14.01,2013-01-22 15:17:00,
2013-01-22 10:22:00,-12.1,-18.3,30.21,NNE,17,7.0,8.0,73,0.00,,---,0.00,VWS V14.01,2013-01-22 15:22:00,
2013-01-22 10:27:00,-11.8,-18.0,30.21,NNE,31,8.0,8.0,73,0.00,,---,0.00,VWS V14.01,2013-01-22 15:27:00,
2013-01-22 10:30:00,-10.6,-18.5,30.22,NNW,347,6.0,8.0,67,0.00,,---,0.00,VWS V15.00,2013-01-22 15:30:00,
2013-01-22 10:32:00,-11.6,-18.1,30.21,NNE,15,5.0,8.0,72,0.00,,---,0.00,VWS V14.01,2013-01-22 15:32:00,
2013-01-22 10:37:00,-11.5,-18.0,30.21,North,360,7.0,8.0,72,0.00,,---,0.00,VWS V14.01,2013-01-22 15:37:00,
2013-01-22 10:42:00,-11.2,-18.0,30.21,North,360,7.0,8.0,71,0.00,,---,0.00,VWS V14.01,2013-01-22 15:42:00,
2013-01-22 10:47:00,-11.3,-18.1,30.22,North,356,6.0,8.0,71,0.00,,---,0.00,VWS V14.01,2013-01-22 15:47:00,
2013-01-22 10:52:00,-11.4,-18.2,30.21,North,8,6.0,8.0,71,0.00,,---,0.00,VWS V14.01,2013-01-22 15:52:00,
2013-01-22 10:57:00,-11.3,-18.1,30.22,North,5,6.0,8.0,71,0.00,,---,0.00,VWS V14.01,2013-01-22 15:57:00,
2013-01-22 11:00:00,-10.0,-18.2,30.22,North,350,3.0,9.0,66,0.00,,---,0.00,VWS V15.00,2013-01-22 16:00:00,
2013-01-22 11:02:00,-11.5,-18.5,30.22,North,1,7.0,8.0,70,0.00,,---,0.00,VWS V14.01,2013-01-22 16:02:00,
2013-01-22 11:07:00,-11.2,-18.2,30.22,North,360,7.0,8.0,70,0.00,,---,0.00,VWS V14.01,2013-01-22 16:07:00,
2013-01-22 11:13:00,-10.7,-17.8,30.22,North,354,6.0,8.0,70,0.00,,---,0.00,VWS V14.01,2013-01-22 16:13:00,
2013-01-22 11:18:00,-10.9,-18.2,30.22,North,6,6.0,8.0,69,0.00,,---,0.00,VWS V14.01,2013-01-22 16:18:00,
2013-01-22 11:23:00,-10.7,-18.3,30.22,North,2,6.0,8.0,68,0.00,,---,0.00,VWS V14.01,2013-01-22 16:23:00,
2013-01-22 11:28:00,-10.5,-18.1,30.22,North,352,5.0,8.0,68,0.00,,---,0.00,VWS V14.01,2013-01-22 16:28:00,
2013-01-22 11:30:00,-7.5,-16.4,30.22,NNE,28,5.0,7.0,64,0.00,,---,0.00,VWS V15.00,2013-01-22 16:30:00,
2013-01-22 11:33:00,-10.5,-18.4,30.22,NNW,341,7.0,7.0,67,0.00,,---,0.00,VWS V14.01,2013-01-22 16:33:00,
2013-01-22 11:38:00,-10.6,-18.8,30.22,NNW,348,7.0,9.0,66,0.00,,---,0.00,VWS V14.01,2013-01-22 16:38:00,
2013-01-22 11:43:00,-10.6,-18.8,30.22,NNW,336,7.0,9.0,66,0.00,,---,0.00,VWS V14.01,2013-01-22 16:43:00,
2013-01-22 11:48:00,-10.2,-18.7,30.22,NNW,338,6.0,9.0,65,0.00,,---,0.00,VWS V14.01,2013-01-22 16:48:00,
2013-01-22 11:53:00,-10.0,-18.2,30.22,NNW,347,7.0,9.0,66,0.00,,---,0.00,VWS V14.01,2013-01-22 16:53:00,
2013-01-22 11:58:00,-10.1,-18.3,30.22,NNW,341,3.0,9.0,66,0.00,,---,0.00,VWS V14.01,2013-01-22 16:58:00,
2013-01-22 12:00:00,-7.7,-17.2,30.21,NNE,18,5.0,9.0,62,0.00,,---,0.00,VWS V15.00,2013-01-22 17:00:00,
2013-01-22 12:03:00,-9.9,-18.1,30.22,North,353,4.0,4.0,66,0.00,,---,0.00,VWS V14.01,2013-01-22 17:03:00,
2013-01-22 12:08:00,-9.8,-18.0,30.22,North,356,5.0,5.0,66,0.00,,---,0.00,VWS V14.01,2013-01-22 17:08:00,
2013-01-22 12:13:00,-9.7,-18.2,30.22,NW,325,2.0,5.0,65,0.00,,---,0.00,VWS V14.01,2013-01-22 17:13:00,
2013-01-22 12:18:00,-9.5,-18.0,30.22,NNW,336,5.0,7.0,65,0.00,,---,0.00,VWS V14.01,2013-01-22 17:18:00,
2013-01-22 12:23:00,-9.5,-18.3,30.22,NNW,336,4.0,7.0,64,0.00,,---,0.00,VWS V14.01,2013-01-22 17:23:00,
2013-01-22 12:28:00,-9.4,-18.2,30.22,NE,56,3.0,7.0,64,0.00,,---,0.00,VWS V14.01,2013-01-22 17:28:00,
2013-01-22 12:30:00,-7.8,-17.6,30.21,NNE,17,4.0,7.0,61,0.00,,---,0.00,VWS V15.00,2013-01-22 17:30:00,
2013-01-22 12:33:00,-8.0,-16.9,30.22,NNE,27,4.0,7.0,64,0.00,,---,0.00,VWS V14.01,2013-01-22 17:33:00,
2013-01-22 12:38:00,-7.9,-16.8,30.22,NNE,22,4.0,7.0,64,0.00,,---,0.00,VWS V14.01,2013-01-22 17:38:00,
2013-01-22 12:43:00,-7.9,-17.1,30.22,NE,40,5.0,8.0,63,0.00,,---,0.00,VWS V14.01,2013-01-22 17:43:00,
2013-01-22 12:48:00,-7.5,-16.7,30.21,NE,36,4.0,8.0,63,0.00,,---,0.00,VWS V14.01,2013-01-22 17:48:00,
2013-01-22 12:53:00,-7.5,-16.7,30.21,NE,40,6.0,8.0,63,0.00,,---,0.00,VWS V14.01,2013-01-22 17:53:00,
2013-01-22 12:58:00,-7.5,-16.7,30.21,NNE,26,4.0,9.0,63,0.00,,---,0.00,VWS V14.01,2013-01-22 17:58:00,
2013-01-22 13:00:00,-8.7,-17.9,30.21,WNW,299,7.0,7.0,63,0.00,,---,0.00,VWS V15.00,2013-01-22 18:00:00,
2013-01-22 13:03:00,-7.8,-17.3,30.21,NE,50,1.0,7.0,62,0.00,,---,0.00,VWS V14.01,2013-01-22 18:03:00,
2013-01-22 13:08:00,-7.9,-17.4,30.22,NNE,28,3.0,7.0,62,0.00,,---,0.00,VWS V14.01,2013-01-22 18:08:00,
2013-01-22 13:13:00,-7.7,-17.6,30.21,NE,42,3.0,7.0,61,0.00,,---,0.00,VWS V14.01,2013-01-22 18:13:00,
2013-01-22 13:18:00,-7.0,-16.6,30.21,ENE,61,3.0,7.0,62,0.00,,---,0.00,VWS V14.01,2013-01-22 18:18:00,
2013-01-22 13:23:00,-7.6,-17.5,30.21,NNE,27,4.0,7.0,61,0.00,,---,0.00,VWS V14.01,2013-01-22 18:23:00,
2013-01-22 13:28:00,-7.8,-17.6,30.21,NNE,20,3.0,7.0,61,0.00,,---,0.00,VWS V14.01,2013-01-22 18:28:00,
2013-01-22 13:30:00,-8.2,-16.2,30.22,WNW,299,3.0,7.0,67,0.00,,---,0.00,VWS V15.00,2013-01-22 18:30:00,
2013-01-22 13:34:00,-7.8,-17.6,30.21,NNE,27,4.0,6.0,61,0.00,,---,0.00,VWS V14.01,2013-01-22 18:34:00,
2013-01-22 13:39:00,-7.6,-17.5,30.21,NNE,19,4.0,7.0,61,0.00,,---,0.00,VWS V14.01,2013-01-22 18:39:00,
2013-01-22 13:44:00,-7.6,-17.5,30.22,NNE,23,4.0,7.0,61,0.00,,---,0.00,VWS V14.01,2013-01-22 18:44:00,
2013-01-22 13:49:00,-8.2,-18.0,30.22,North,359,4.0,7.0,61,0.00,,---,0.00,VWS V14.01,2013-01-22 18:49:00,
2013-01-22 13:54:00,-8.3,-17.8,30.21,North,358,4.0,7.0,62,0.00,,---,0.00,VWS V14.01,2013-01-22 18:54:00,
2013-01-22 13:59:00,-8.4,-17.9,30.21,WNW,299,6.0,7.0,62,0.00,,---,0.00,VWS V14.01,2013-01-22 18:59:00,
2013-01-22 14:00:00,-6.4,-15.4,30.23,WNW,299,0.0,5.0,64,0.00,,---,0.00,VWS V15.00,2013-01-22 19:00:00,
2013-01-22 14:04:00,-8.9,-17.8,30.21,WNW,299,6.0,7.0,64,0.00,,---,0.00,VWS V14.01,2013-01-22 19:04:00,
2013-01-22 14:09:00,-8.9,-17.2,30.22,WNW,299,6.0,7.0,66,0.00,,---,0.00,VWS V14.01,2013-01-22 19:09:00,
2013-01-22 14:14:00,-8.8,-16.8,30.22,WNW,299,5.0,7.0,67,0.00,,---,0.00,VWS V14.01,2013-01-22 19:14:00,
2013-01-22 14:19:00,-8.6,-16.6,30.22,WNW,299,4.0,7.0,67,0.00,,---,0.00,VWS V14.01,2013-01-22 19:19:00,
2013-01-22 14:24:00,-8.4,-16.4,30.22,WNW,299,3.0,7.0,67,0.00,,---,0.00,VWS V14.01,2013-01-22 19:24:00,
2013-01-22 14:29:00,-8.2,-16.2,30.22,WNW,299,3.0,7.0,67,0.00,,---,0.00,VWS V14.01,2013-01-22 19:29:00,
2013-01-22 14:30:00,-4.9,-15.6,30.23,WNW,299,1.0,1.0,59,0.00,,---,0.00,VWS V15.00,2013-01-22 19:30:00,
2013-01-22 14:34:00,-8.1,-16.1,30.22,WNW,299,4.0,4.0,67,0.00,,---,0.00,VWS V14.01,2013-01-22 19:34:00,
2013-01-22 14:39:00,-7.9,-15.9,30.22,WNW,299,3.0,5.0,67,0.00,,---,0.00,VWS V14.01,2013-01-22 19:39:00,
2013-01-22 14:44:00,-7.7,-16.0,30.22,WNW,299,2.0,5.0,66,0.00,,---,0.00,VWS V14.01,2013-01-22 19:44:00,
2013-01-22 14:49:00,-7.3,-15.6,30.23,WNW,299,2.0,5.0,66,0.00,,---,0.00,VWS V14.01,2013-01-22 19:49:00,
2013-01-22 14:54:00,-7.1,-15.8,30.23,WNW,299,2.0,5.0,65,0.00,,---,0.00,VWS V14.01,2013-01-22 19:54:00,
2013-01-22 14:59:00,-6.6,-15.3,30.23,WNW,299,0.0,5.0,65,0.00,,---,0.00,VWS V14.01,2013-01-22 19:59:00,
2013-01-22 15:00:00,-4.2,-15.6,30.22,WNW,299,0.0,2.0,57,0.00,,---,0.00,VWS V15.00,2013-01-22 20:00:00,
2013-01-22 15:04:00,-6.0,-15.0,30.23,WNW,299,0.0,0.0,64,0.00,,---,0.00,VWS V14.01,2013-01-22 20:04:00,
2013-01-22 15:09:00,-5.4,-14.7,30.23,WNW,299,0.0,1.0,63,0.00,,---,0.00,VWS V14.01,2013-01-22 20:09:00,
2013-01-22 15:14:00,-4.9,-14.6,30.23,WNW,299,0.0,1.0,62,0.00,,---,0.00,VWS V14.01,2013-01-22 20:14:00,
2013-01-22 15:19:00,-4.8,-15.1,30.23,WNW,299,0.0,1.0,60,0.00,,---,0.00,VWS V14.01,2013-01-22 20:19:00,
2013-01-22 15:24:00,-4.8,-15.1,30.23,WNW,299,0.0,1.0,60,0.00,,---,0.00,VWS V14.01,2013-01-22 20:24:00,
2013-01-22 15:29:00,-4.9,-15.6,30.23,WNW,299,1.0,1.0,59,0.00,,---,0.00,VWS V14.01,2013-01-22 20:29:00,
2013-01-22 15:30:00,-4.4,-15.4,30.22,SSW,197,2.0,3.0,58,0.00,,---,0.00,VWS V15.00,2013-01-22 20:30:00,
2013-01-22 15:34:00,-4.9,-15.6,30.22,WNW,299,0.0,1.0,59,0.00,,---,0.00,VWS V14.01,2013-01-22 20:34:00,
2013-01-22 15:39:00,-4.4,-15.4,30.22,WNW,299,0.0,1.0,58,0.00,,---,0.00,VWS V14.01,2013-01-22 20:39:00,
2013-01-22 15:44:00,-4.0,-15.0,30.23,WNW,299,0.0,1.0,58,0.00,,---,0.00,VWS V14.01,2013-01-22 20:44:00,
2013-01-22 15:49:00,-4.1,-15.5,30.22,WNW,299,0.0,2.0,57,0.00,,---,0.00,VWS V14.01,2013-01-22 20:49:00,
2013-01-22 15:54:00,-4.3,-15.7,30.22,WNW,299,0.0,2.0,57,0.00,,---,0.00,VWS V14.01,2013-01-22 20:54:00,
2013-01-22 15:59:00,-4.2,-15.6,30.22,WNW,299,0.0,2.0,57,0.00,,---,0.00,VWS V14.01,2013-01-22 20:59:00,
2013-01-22 16:00:00,-4.8,-15.8,30.22,WNW,299,2.0,3.0,58,0.00,,---,0.00,VWS V15.00,2013-01-22 21:00:00,
2013-01-22 16:04:00,-4.2,-15.9,30.23,WNW,299,2.0,2.0,56,0.00,,---,0.00,VWS V14.01,2013-01-22 21:04:00,
2013-01-22 16:09:00,-4.4,-16.1,30.23,WNW,299,1.0,2.0,56,0.00,,---,0.00,VWS V14.01,2013-01-22 21:09:00,
2013-01-22 16:14:00,-4.3,-16.0,30.22,WNW,299,0.0,2.0,56,0.00,,---,0.00,VWS V14.01,2013-01-22 21:14:00,
2013-01-22 16:19:00,-4.8,-16.1,30.22,SSW,197,1.0,2.0,57,0.00,,---,0.00,VWS V14.01,2013-01-22 21:19:00,
2013-01-22 16:24:00,-4.5,-15.2,30.22,SSW,197,2.0,2.0,59,0.00,,---,0.00,VWS V14.01,2013-01-22 21:24:00,
2013-01-22 16:29:00,-4.4,-15.1,30.22,SSW,197,3.0,3.0,59,0.00,,---,0.00,VWS V14.01,2013-01-22 21:29:00,
2013-01-22 16:30:00,-6.1,-16.7,30.23,WNW,299,1.0,3.0,59,0.00,,---,0.00,VWS V15.00,2013-01-22 21:30:00,
2013-01-22 16:31:00,-4.4,-15.4,30.22,SSW,197,2.0,2.0,58,0.00,,---,0.00,VWS V14.01,2013-01-22 21:31:00,
2013-01-22 16:36:00,-4.7,-16.0,30.22,SSW,197,3.0,3.0,57,0.00,,---,0.00,VWS V14.01,2013-01-22 21:36:00,
2013-01-22 16:42:00,-4.4,-15.8,30.22,WNW,299,1.0,3.0,57,0.00,,---,0.00,VWS V14.01,2013-01-22 21:42:00,
2013-01-22 16:47:00,-4.3,-15.7,30.22,WNW,299,0.0,3.0,57,0.00,,---,0.00,VWS V14.01,2013-01-22 21:47:00,
2013-01-22 16:52:00,-4.4,-15.8,30.22,WNW,299,2.0,3.0,57,0.00,,---,0.00,VWS V14.01,2013-01-22 21:52:00,
2013-01-22 16:57:00,-4.6,-15.9,30.22,WNW,299,1.0,3.0,57,0.00,,---,0.00,VWS V14.01,2013-01-22 21:57:00,
2013-01-22 17:00:00,-6.6,-16.8,30.24,WNW,299,0.0,3.0,60,0.00,,---,0.00,VWS V15.00,2013-01-22 22:00:00,
2013-01-22 17:02:00,-4.9,-15.9,30.22,WNW,299,2.0,3.0,58,0.00,,---,0.00,VWS V14.01,2013-01-22 22:02:00,
2013-01-22 17:07:00,-5.2,-16.2,30.23,WNW,299,2.0,3.0,58,0.00,,---,0.00,VWS V14.01,2013-01-22 22:07:00,
2013-01-22 17:12:00,-5.2,-16.2,30.23,WNW,299,0.0,3.0,58,0.00,,---,0.00,VWS V14.01,2013-01-22 22:12:00,
2013-01-22 17:17:00,-5.3,-16.3,30.23,WNW,299,0.0,3.0,58,0.00,,---,0.00,VWS V14.01,2013-01-22 22:17:00,
2013-01-22 17:22:00,-5.6,-16.5,30.23,WNW,299,0.0,3.0,58,0.00,,---,0.00,VWS V14.01,2013-01-22 22:22:00,
2013-01-22 17:27:00,-6.0,-16.6,30.23,WNW,299,0.0,3.0,59,0.00,,---,0.00,VWS V14.01,2013-01-22 22:27:00,
2013-01-22 17:30:00,-7.3,-16.9,30.24,WNW,299,0.0,0.0,62,0.00,,---,0.00,VWS V15.00,2013-01-22 22:30:00,
2013-01-22 17:32:00,-6.2,-16.8,30.23,WNW,299,2.0,2.0,59,0.00,,---,0.00,VWS V14.01,2013-01-22 22:32:00,
2013-01-22 17:37:00,-6.3,-16.9,30.23,WNW,299,2.0,3.0,59,0.00,,---,0.00,VWS V14.01,2013-01-22 22:37:00,
2013-01-22 17:42:00,-6.4,-16.6,30.23,WNW,299,2.0,3.0,60,0.00,,---,0.00,VWS V14.01,2013-01-22 22:42:00,
2013-01-22 17:47:00,-6.4,-16.6,30.23,WNW,299,0.0,3.0,60,0.00,,---,0.00,VWS V14.01,2013-01-22 22:47:00,
2013-01-22 17:52:00,-6.5,-16.7,30.23,WNW,299,0.0,3.0,60,0.00,,---,0.00,VWS V14.01,2013-01-22 22:52:00,
2013-01-22 17:57:00,-6.6,-16.8,30.23,WNW,299,0.0,3.0,60,0.00,,---,0.00,VWS V14.01,2013-01-22 22:57:00,
2013-01-22 18:00:00,-6.9,-16.5,30.24,WNW,299,0.0,1.0,62,0.00,,---,0.00,VWS V15.00,2013-01-22 23:00:00,
2013-01-22 18:02:00,-6.6,-16.8,30.23,WNW,299,0.0,0.0,60,0.00,,---,0.00,VWS V14.01,2013-01-22 23:02:00,
2013-01-22 18:07:00,-6.7,-16.6,30.24,WNW,299,0.0,0.0,61,0.00,,---,0.00,VWS V14.01,2013-01-22 23:07:00,
2013-01-22 18:12:00,-6.7,-16.6,30.23,WNW,299,0.0,0.0,61,0.00,,---,0.00,VWS V14.01,2013-01-22 23:12:00,
2013-01-22 18:18:00,-6.9,-16.8,30.23,WNW,299,0.0,0.0,61,0.00,,---,0.00,VWS V14.01,2013-01-22 23:18:00,
2013-01-22 18:23:00,-7.1,-17.0,30.24,WNW,299,0.0,0.0,61,0.00,,---,0.00,VWS V14.01,2013-01-22 23:23:00,
2013-01-22 18:28:00,-7.2,-16.8,30.24,WNW,299,0.0,0.0,62,0.00,,---,0.00,VWS V14.01,2013-01-22 23:28:00,
2013-01-22 18:30:00,-6.3,-15.6,30.24,WNW,299,0.0,3.0,63,0.00,,---,0.00,VWS V15.00,2013-01-22 23:30:00,
2013-01-22 18:33:00,-7.4,-17.0,30.24,WNW,299,0.0,0.0,62,0.00,,---,0.00,VWS V14.01,2013-01-22 23:33:00,
2013-01-22 18:38:00,-7.6,-17.1,30.24,WNW,299,0.0,0.0,62,0.00,,---,0.00,VWS V14.01,2013-01-22 23:38:00,
2013-01-22 18:43:00,-7.6,-17.1,30.24,WNW,299,0.0,0.0,62,0.00,,---,0.00,VWS V14.01,2013-01-22 23:43:00,
2013-01-22 18:48:00,-7.4,-16.6,30.24,WNW,299,0.0,0.0,63,0.00,,---,0.00,VWS V14.01,2013-01-22 23:48:00,
2013-01-22 18:53:00,-7.1,-16.4,30.24,WNW,299,0.0,0.0,63,0.00,,---,0.00,VWS V14.01,2013-01-22 23:53:00,
2013-01-22 18:58:00,-7.0,-16.3,30.24,WNW,299,1.0,1.0,63,0.00,,---,0.00,VWS V14.01,2013-01-22 23:58:00,
2013-01-22 19:00:00,-6.5,-16.1,30.23,WNW,299,3.0,4.0,62,0.00,,---,0.00,VWS V15.00,2013-01-23 00:00:00,
2013-01-22 19:03:00,-6.9,-16.5,30.24,WNW,299,0.0,1.0,62,0.00,,---,0.00,VWS V14.01,2013-01-23 00:03:00,
2013-01-22 19:08:00,-7.0,-16.3,30.24,WNW,299,2.0,3.0,63,0.00,,---,0.00,VWS V14.01,2013-01-23 00:08:00,
2013-01-22 19:13:00,-7.0,-16.3,30.24,WNW,299,1.0,3.0,63,0.00,,---,0.00,VWS V14.01,2013-01-23 00:13:00,
2013-01-22 19:18:00,-6.8,-16.1,30.24,WNW,299,0.0,3.0,63,0.00,,---,0.00,VWS V14.01,2013-01-23 00:18:00,
2013-01-22 19:23:00,-6.6,-15.9,30.24,WNW,299,1.0,3.0,63,0.00,,---,0.00,VWS V14.01,2013-01-23 00:23:00,
2013-01-22 19:28:00,-6.4,-15.7,30.24,WNW,299,0.0,3.0,63,0.00,,---,0.00,VWS V14.01,2013-01-23 00:28:00,
2013-01-22 19:30:00,-6.7,-16.0,30.23,WNW,299,3.0,4.0,63,0.00,,---,0.00,VWS V15.00,2013-01-23 00:30:00,
2013-01-22 19:33:00,-6.3,-15.6,30.24,WNW,299,1.0,1.0,63,0.00,,---,0.00,VWS V14.01,2013-01-23 00:33:00,
2013-01-22 19:38:00,-6.2,-15.8,30.24,WNW,299,2.0,3.0,62,0.00,,---,0.00,VWS V14.01,2013-01-23 00:38:00,
2013-01-22 19:43:00,-6.2,-15.8,30.24,WNW,299,3.0,3.0,62,0.00,,---,0.00,VWS V14.01,2013-01-23 00:43:00,
2013-01-22 19:48:00,-6.2,-15.8,30.24,WNW,299,3.0,3.0,62,0.00,,---,0.00,VWS V14.01,2013-01-23 00:48:00,
2013-01-22 19:53:00,-6.2,-15.8,30.23,WNW,299,2.0,3.0,62,0.00,,---,0.00,VWS V14.01,2013-01-23 00:53:00,
2013-01-22 19:58:00,-6.5,-16.1,30.23,WNW,299,3.0,4.0,62,0.00,,---,0.00,VWS V14.01,2013-01-23 00:58:00,
2013-01-22 20:00:00,-6.4,-15.4,30.22,WNW,299,0.0,3.0,64,0.00,,---,0.00,VWS V15.00,2013-01-23 01:00:00,
2013-01-22 20:03:00,-6.4,-15.7,30.23,WNW,299,2.0,4.0,63,0.00,,---,0.00,VWS V14.01,2013-01-23 01:03:00,
2013-01-22 20:08:00,-6.3,-15.9,30.23,WNW,299,2.0,4.0,62,0.00,,---,0.00,VWS V14.01,2013-01-23 01:08:00,
2013-01-22 20:13:00,-6.3,-15.9,30.23,WNW,299,3.0,4.0,62,0.00,,---,0.00,VWS V14.01,2013-01-23 01:13:00,
2013-01-22 20:18:00,-6.6,-16.2,30.23,WNW,299,4.0,4.0,62,0.00,,---,0.00,VWS V14.01,2013-01-23 01:18:00,
2013-01-22 20:23:00,-6.7,-16.0,30.23,WNW,299,4.0,4.0,63,0.00,,---,0.00,VWS V14.01,2013-01-23 01:23:00,
2013-01-22 20:28:00,-6.7,-16.0,30.23,WNW,299,1.0,4.0,63,0.00,,---,0.00,VWS V14.01,2013-01-23 01:28:00,
2013-01-22 20:30:00,-6.0,-14.7,30.23,WNW,299,0.0,2.0,65,0.00,,---,0.00,VWS V15.00,2013-01-23 01:30:00,
2013-01-22 20:33:00,-6.7,-16.0,30.23,WNW,299,2.0,3.0,63,0.00,,---,0.00,VWS V14.01,2013-01-23 01:33:00,
2013-01-22 20:38:00,-6.5,-15.8,30.23,WNW,299,1.0,3.0,63,0.00,,---,0.00,VWS V14.01,2013-01-23 01:38:00,
2013-01-22 20:43:00,-6.3,-15.3,30.23,WNW,299,2.0,3.0,64,0.00,,---,0.00,VWS V14.01,2013-01-23 01:43:00,
2013-01-22 20:48:00,-6.2,-15.2,30.23,WNW,299,0.0,3.0,64,0.00,,---,0.00,VWS V14.01,2013-01-23 01:48:00,
2013-01-22 20:53:00,-6.6,-15.9,30.22,WNW,299,2.0,3.0,63,0.00,,---,0.00,VWS V14.01,2013-01-23 01:53:00,
2013-01-22 20:58:00,-6.5,-15.5,30.22,WNW,299,0.0,3.0,64,0.00,,---,0.00,VWS V14.01,2013-01-23 01:58:00,
2013-01-22 21:00:00,-5.3,-13.4,30.22,WNW,299,0.0,4.0,67,0.00,,---,0.00,VWS V15.00,2013-01-23 02:00:00,
2013-01-22 21:03:00,-6.3,-15.3,30.22,WNW,299,1.0,1.0,64,0.00,,---,0.00,VWS V14.01,2013-01-23 02:03:00,
2013-01-22 21:08:00,-6.1,-15.1,30.22,WNW,299,2.0,2.0,64,0.00,,---,0.00,VWS V14.01,2013-01-23 02:08:00,
2013-01-22 21:14:00,-6.2,-15.2,30.22,WNW,299,0.0,2.0,64,0.00,,---,0.00,VWS V14.01,2013-01-23 02:14:00,
2013-01-22 21:19:00,-6.3,-15.3,30.22,WNW,299,0.0,2.0,64,0.00,,---,0.00,VWS V14.01,2013-01-23 02:19:00,
2013-01-22 21:24:00,-6.1,-14.8,30.22,WNW,299,1.0,2.0,65,0.00,,---,0.00,VWS V14.01,2013-01-23 02:24:00,
2013-01-22 21:29:00,-6.1,-14.8,30.23,WNW,299,0.0,2.0,65,0.00,,---,0.00,VWS V14.01,2013-01-23 02:29:00,
2013-01-22 21:30:00,-5.9,-14.0,30.22,WNW,299,0.0,2.0,67,0.00,,---,0.00,VWS V15.00,2013-01-23 02:30:00,
2013-01-22 21:34:00,-6.1,-14.8,30.23,WNW,299,1.0,1.0,65,0.00,,---,0.00,VWS V14.01,2013-01-23 02:34:00,
2013-01-22 21:39:00,-6.4,-15.1,30.23,WNW,299,2.0,4.0,65,0.00,,---,0.00,VWS V14.01,2013-01-23 02:39:00,
2013-01-22 21:44:00,-6.7,-15.4,30.22,WNW,299,2.0,4.0,65,0.00,,---,0.00,VWS V14.01,2013-01-23 02:44:00,
2013-01-22 21:49:00,-6.3,-14.7,30.22,WNW,299,0.0,4.0,66,0.00,,---,0.00,VWS V14.01,2013-01-23 02:49:00,
2013-01-22 21:54:00,-5.6,-13.7,30.22,WNW,299,0.0,4.0,67,0.00,,---,0.00,VWS V14.01,2013-01-23 02:54:00,
2013-01-22 21:59:00,-5.3,-13.4,30.22,WNW,299,0.0,4.0,67,0.00,,---,0.00,VWS V14.01,2013-01-23 02:59:00,
2013-01-22 22:00:00,-5.4,-13.2,30.22,WNW,299,0.0,4.0,68,0.00,,---,0.00,VWS V15.00,2013-01-23 03:00:00,
2013-01-22 22:04:00,-5.4,-13.8,30.22,WNW,299,0.0,0.0,66,0.00,,---,0.00,VWS V14.01,2013-01-23 03:04:00,
2013-01-22 22:09:00,-5.1,-12.9,30.22,WNW,299,0.0,0.0,68,0.00,,---,0.00,VWS V14.01,2013-01-23 03:09:00,
2013-01-22 22:14:00,-4.9,-12.7,30.22,WNW,299,1.0,1.0,68,0.00,,---,0.00,VWS V14.01,2013-01-23 03:14:00,
2013-01-22 22:19:00,-5.1,-13.2,30.22,WNW,299,0.0,1.0,67,0.00,,---,0.00,VWS V14.01,2013-01-23 03:19:00,
2013-01-22 22:24:00,-5.3,-13.4,30.22,WNW,299,0.0,1.0,67,0.00,,---,0.00,VWS V14.01,2013-01-23 03:24:00,
2013-01-22 22:29:00,-5.6,-13.7,30.22,WNW,299,1.0,2.0,67,0.00,,---,0.00,VWS V14.01,2013-01-23 03:29:00,
2013-01-22 22:30:00,-4.5,-11.2,30.21,WNW,299,1.0,2.0,72,0.00,,---,0.00,VWS V15.00,2013-01-23 03:30:00,
2013-01-22 22:34:00,-5.5,-13.3,30.22,WNW,299,0.0,1.0,68,0.00,,---,0.00,VWS V14.01,2013-01-23 03:34:00,
2013-01-22 22:39:00,-5.1,-12.6,30.22,WNW,299,1.0,1.0,69,0.00,,---,0.00,VWS V14.01,2013-01-23 03:39:00,
2013-01-22 22:44:00,-4.6,-12.2,30.21,WNW,299,0.0,2.0,69,0.00,,---,0.00,VWS V14.01,2013-01-23 03:44:00,
2013-01-22 22:49:00,-5.0,-13.1,30.21,WNW,299,0.0,4.0,67,0.00,,---,0.00,VWS V14.01,2013-01-23 03:49:00,
2013-01-22 22:54:00,-5.1,-12.9,30.21,WNW,299,0.0,4.0,68,0.00,,---,0.00,VWS V14.01,2013-01-23 03:54:00,
2013-01-22 22:59:00,-5.2,-12.7,30.22,WNW,299,0.0,4.0,69,0.00,,---,0.00,VWS V14.01,2013-01-23 03:59:00,
2013-01-22 23:00:00,-4.5,-10.9,30.21,WNW,299,0.0,3.0,73,0.00,,---,0.00,VWS V15.00,2013-01-23 04:00:00,
2013-01-22 23:04:00,-5.5,-13.0,30.22,WNW,299,0.0,0.0,69,0.00,,---,0.00,VWS V14.01,2013-01-23 04:04:00,
2013-01-22 23:09:00,-5.3,-12.6,30.22,WNW,299,0.0,1.0,70,0.00,,---,0.00,VWS V14.01,2013-01-23 04:09:00,
2013-01-22 23:14:00,-5.2,-12.5,30.21,WNW,299,0.0,1.0,70,0.00,,---,0.00,VWS V14.01,2013-01-23 04:14:00,
2013-01-22 23:19:00,-4.9,-11.9,30.21,WNW,299,0.0,1.0,71,0.00,,---,0.00,VWS V14.01,2013-01-23 04:19:00,
2013-01-22 23:24:00,-4.6,-11.6,30.21,WNW,299,1.0,1.0,71,0.00,,---,0.00,VWS V14.01,2013-01-23 04:24:00,
2013-01-22 23:29:00,-4.6,-11.6,30.21,WNW,299,2.0,2.0,71,0.00,,---,0.00,VWS V14.01,2013-01-23 04:29:00,
2013-01-22 23:30:00,-3.2,-9.1,30.21,WNW,299,3.0,4.0,75,0.00,,---,0.00,VWS V15.00,2013-01-23 04:30:00,
2013-01-22 23:34:00,-4.1,-10.8,30.21,WNW,299,0.0,2.0,72,0.00,,---,0.00,VWS V14.01,2013-01-23 04:34:00,
2013-01-22 23:39:00,-4.2,-10.9,30.21,WNW,299,1.0,2.0,72,0.00,,---,0.00,VWS V14.01,2013-01-23 04:39:00,
2013-01-22 23:44:00,-4.5,-11.2,30.21,WNW,299,0.0,2.0,72,0.00,,---,0.00,VWS V14.01,2013-01-23 04:44:00,
2013-01-22 23:49:00,-3.8,-10.3,30.21,WNW,299,0.0,2.0,73,0.00,,---,0.00,VWS V14.01,2013-01-23 04:49:00,
2013-01-22 23:54:00,-4.1,-10.6,30.21,WNW,299,3.0,3.0,73,0.00,,---,0.00,VWS V14.01,2013-01-23 04:54:00,
2013-01-22 23:59:00,-4.3,-10.7,30.21,WNW,299,0.0,3.0,73,0.00,,---,0.00,VWS V14.01,2013-01-23 04:59:00,